KMOX

Morris Municipal - Charlie Schmidt Field Airport

Morris, Minnesota, USA
METAR KMOX 210355Z AUTO 09007KT 10SM CLR 13/M03 A3012 RMK AO2
Observed Flight Rules
May-21 @ 03:55 UTC (3 hours ago) Visual Flight Rules
Wind Visibility Clouds
90° at 7 knots 10 miles
  • Clear skies
Temperatures Readings
Current 13°C / 55°F
Dewpoint -3°C / 27°F
Humidity 33%
Altimeter 30.12" Hg
Pressure 1020 hPa
Elevation 344
METAR KMOX 210355Z AUTO 09007KT 10SM CLR 13/M03 A3012 RMK AO2
Observed Flight Rules
May-21 @ 03:55 UTC
(3 hours ago)
VFR
Wind Visibility
90° at 7 knots 10 miles
Clouds
  • Clear skies
Temperature Dewpoint
13°C / 55°F -3°C / 27°F
Humidity Altimeter Pressure
33% 30.12" Hg 1020 hPa